Time;durP1;ratioP1;P1;durP2;ratioP2;P2;SDS_P1;SDS_P2;PMS_P1;PMS_P2;Temp;Humidity;BMP_temperature;BMP_pressure;BME280_temperature;BME280_humidity;BME280_pressure;Samples;Min_cycle;Max_cycle;Signal;HPM_P1;HPM_P2
2024/01/21 00:00:29;;;;;;;12.90;4.17;;;;;;;7.93;36.41;102355.84;5050543;28;20020;-74
2024/01/21 00:02:55;;;;;;;8.93;3.73;;;;;;;8.00;36.28;102354.25;5050722;28;20511;-75
2024/01/21 00:05:20;;;;;;;10.27;3.87;;;;;;;7.31;36.81;102349.00;5050293;28;20028;-75
2024/01/21 00:07:45;;;;;;;10.20;4.03;;;;;;;7.96;36.31;102335.94;5050089;28;20021;-75
2024/01/21 00:10:11;;;;;;;8.23;3.77;;;;;;;6.79;37.45;102332.78;5051990;28;20041;-75
2024/01/21 00:12:37;;;;;;;9.47;3.67;;;;;;;7.54;36.63;102321.00;5045962;28;20029;-75
2024/01/21 00:15:03;;;;;;;6.23;3.53;;;;;;;7.34;37.29;102327.41;5030606;28;20022;-75
2024/01/21 00:17:31;;;;;;;7.13;3.23;;;;;;;8.02;35.98;102334.34;5039453;28;20481;-74
2024/01/21 00:19:57;;;;;;;6.60;3.73;;;;;;;7.59;35.98;102335.00;5049844;28;20111;-74
2024/01/21 00:22:23;;;;;;;6.87;3.40;;;;;;;7.94;36.27;102331.53;5051602;28;20108;-74
2024/01/21 00:24:49;;;;;;;10.77;3.47;;;;;;;7.21;36.54;102321.84;5049986;28;20272;-75
2024/01/21 00:27:14;;;;;;;4.87;2.60;;;;;;;7.35;36.47;102323.94;5049837;28;20028;-76
2024/01/21 00:29:40;;;;;;;6.17;2.97;;;;;;;7.70;35.92;102310.97;5049553;28;20048;-75
2024/01/21 00:32:05;;;;;;;4.63;2.60;;;;;;;7.36;36.20;102299.69;5051069;28;20143;-75
2024/01/21 00:34:31;;;;;;;4.70;2.70;;;;;;;7.39;35.80;102289.34;5050897;28;20017;-75
2024/01/21 00:36:56;;;;;;;4.93;2.80;;;;;;;7.77;35.65;102268.66;5050063;28;20025;-75
2024/01/21 00:39:21;;;;;;;5.90;2.90;;;;;;;8.07;35.33;102265.03;5050243;28;20407;-75
2024/01/21 00:41:47;;;;;;;6.87;3.37;;;;;;;8.04;35.48;102267.56;5049044;28;20127;-76
2024/01/21 00:44:12;;;;;;;8.87;3.50;;;;;;;7.95;35.84;102256.09;5051407;28;20086;-76
2024/01/21 00:46:38;;;;;;;6.57;2.67;;;;;;;7.77;35.47;102250.41;5050023;28;20075;-77
2024/01/21 00:49:04;;;;;;;4.77;2.63;;;;;;;7.95;35.34;102250.88;5051384;28;20538;-76
2024/01/21 00:51:29;;;;;;;6.67;2.80;;;;;;;7.48;35.96;102232.38;5049596;28;20021;-74
2024/01/21 00:53:55;;;;;;;8.40;3.07;;;;;;;7.57;35.90;102224.78;5049308;28;20522;-75
2024/01/21 00:56:20;;;;;;;6.50;2.63;;;;;;;7.53;35.52;102207.34;5051178;28;20461;-75
2024/01/21 00:58:45;;;;;;;3.80;2.73;;;;;;;7.71;35.66;102198.22;5049420;28;20025;-75
2024/01/21 01:01:11;;;;;;;5.53;2.90;;;;;;;7.54;35.58;102187.41;5049274;28;20036;-75
2024/01/21 01:03:37;;;;;;;7.03;2.50;;;;;;;7.45;35.85;102181.13;5050616;28;20115;-75
2024/01/21 01:06:03;;;;;;;8.00;3.40;;;;;;;7.51;35.93;102187.34;5050112;28;20551;-75
2024/01/21 01:08:31;;;;;;;9.63;3.07;;;;;;;7.72;35.35;102184.34;5048877;28;20147;-75
2024/01/21 01:10:57;;;;;;;4.53;2.53;;;;;;;7.02;36.31;102198.25;5051225;28;20025;-75
2024/01/21 01:13:22;;;;;;;8.13;2.90;;;;;;;8.31;34.09;102187.41;5051153;28;20027;-75
2024/01/21 01:15:48;;;;;;;6.13;2.70;;;;;;;8.06;34.24;102185.13;5048644;28;20544;-75
2024/01/21 01:18:16;;;;;;;8.13;2.93;;;;;;;7.75;34.52;102181.84;5046336;28;20022;-75
2024/01/21 01:20:41;;;;;;;6.10;3.10;;;;;;;6.97;35.76;102200.72;5029539;28;20017;-74
2024/01/21 01:23:06;;;;;;;3.70;2.40;;;;;;;7.77;34.79;102181.00;5037722;28;20024;-75
2024/01/21 01:25:32;;;;;;;7.37;2.90;;;;;;;6.97;35.99;102186.84;5049365;28;20476;-75
2024/01/21 01:27:57;;;;;;;5.67;2.53;;;;;;;7.47;35.37;102170.75;5049661;28;20078;-75
2024/01/21 01:30:23;;;;;;;8.67;3.13;;;;;;;6.47;36.58;102175.94;5049057;28;20021;-75
2024/01/21 01:32:48;;;;;;;3.87;2.57;;;;;;;7.13;36.37;102177.75;5049348;28;20528;-75
2024/01/21 01:35:14;;;;;;;11.53;2.93;;;;;;;7.29;36.17;102172.09;5049755;28;20116;-75
2024/01/21 01:37:39;;;;;;;6.40;2.33;;;;;;;7.91;34.80;102164.81;5048457;28;20032;-75
2024/01/21 01:40:06;;;;;;;7.73;2.83;;;;;;;7.78;35.29;102158.47;5049644;28;20514;-75
2024/01/21 01:42:32;;;;;;;3.83;2.23;;;;;;;7.46;35.78;102156.88;5052749;28;20112;-75
2024/01/21 01:44:58;;;;;;;5.57;2.10;;;;;;;6.88;36.55;102156.31;5052894;28;20025;-75
2024/01/21 01:47:23;;;;;;;3.83;2.23;;;;;;;7.23;36.20;102160.66;5053192;28;20053;-75
2024/01/21 01:49:49;;;;;;;4.53;2.50;;;;;;;6.89;36.96;102158.03;5054266;28;20039;-75
2024/01/21 01:52:15;;;;;;;6.87;2.60;;;;;;;7.09;36.36;102160.31;5053878;28;20040;-75
2024/01/21 01:54:44;;;;;;;5.13;2.73;;;;;;;7.08;36.09;102155.94;5052602;28;20029;-75
2024/01/21 01:57:10;;;;;;;4.93;1.90;;;;;;;7.40;36.76;102150.66;5053775;28;20429;-76
2024/01/21 01:59:37;;;;;;;7.13;3.00;;;;;;;7.76;35.65;102134.13;5053985;28;20388;-75
2024/01/21 02:02:02;;;;;;;5.93;2.57;;;;;;;8.05;34.95;102121.75;5054488;28;20112;-75
2024/01/21 02:04:32;;;;;;;6.03;2.60;;;;;;;7.91;35.22;102134.47;5052489;28;20037;-75
2024/01/21 02:06:57;;;;;;;3.43;2.50;;;;;;;7.45;36.05;102112.63;5054518;28;20013;-75
2024/01/21 02:09:23;;;;;;;8.57;2.97;;;;;;;7.49;35.90;102109.25;5053101;28;20477;-75
2024/01/21 02:11:48;;;;;;;6.60;2.23;;;;;;;7.17;36.50;102111.97;5053180;28;20029;-75
2024/01/21 02:14:13;;;;;;;3.87;1.97;;;;;;;6.89;37.13;102112.97;5052920;28;20620;-75
2024/01/21 02:16:39;;;;;;;5.57;1.93;;;;;;;7.06;37.12;102097.78;5053626;28;20017;-75
2024/01/21 02:19:10;;;;;;;5.60;2.67;;;;;;;7.84;36.05;102084.84;5052240;28;20190;-75
2024/01/21 02:21:36;;;;;;;6.13;2.33;;;;;;;7.39;35.57;102078.63;5053601;28;20025;-75
2024/01/21 02:24:02;;;;;;;4.70;2.33;;;;;;;7.44;36.33;102095.25;5052785;28;20017;-75
2024/01/21 02:26:27;;;;;;;4.50;2.87;;;;;;;7.70;35.70;102092.34;5053330;28;20166;-75
2024/01/21 02:28:53;;;;;;;5.47;2.30;;;;;;;7.33;36.50;102081.13;5048954;28;20052;-75
2024/01/21 02:31:18;;;;;;;6.87;2.43;;;;;;;8.02;35.22;102086.94;5034085;28;20485;-75
2024/01/21 02:33:43;;;;;;;4.77;2.43;;;;;;;7.17;36.62;102079.84;5033723;28;20112;-75
2024/01/21 02:36:09;;;;;;;4.03;2.17;;;;;;;7.59;36.21;102084.31;5052435;28;20027;-75
2024/01/21 02:38:34;;;;;;;4.97;2.30;;;;;;;7.78;35.90;102077.78;5052102;28;20575;-75
2024/01/21 02:41:00;;;;;;;3.77;2.10;;;;;;;8.07;35.38;102072.31;5051711;28;20028;-75
2024/01/21 02:43:25;;;;;;;5.90;1.80;;;;;;;7.39;36.21;102056.13;5053601;28;20033;-76
2024/01/21 02:45:50;;;;;;;4.37;2.37;;;;;;;7.46;35.85;102057.16;5052109;28;20108;-75
2024/01/21 02:48:16;;;;;;;6.20;2.87;;;;;;;7.15;36.93;102045.16;5051519;28;20123;-75
2024/01/21 02:50:41;;;;;;;6.87;1.73;;;;;;;7.19;37.01;102037.44;5051852;28;20037;-75
2024/01/21 02:53:07;;;;;;;3.67;2.03;;;;;;;7.22;36.39;102032.31;5051444;28;20064;-75
2024/01/21 02:55:32;;;;;;;5.23;2.63;;;;;;;8.05;35.68;102030.59;5051277;28;20445;-74
2024/01/21 02:57:57;;;;;;;8.77;2.43;;;;;;;7.33;36.56;102034.28;5051794;28;20090;-75
2024/01/21 03:00:23;;;;;;;4.87;2.37;;;;;;;6.96;36.71;102023.91;5051068;28;20035;-75
2024/01/21 03:02:49;;;;;;;7.70;2.23;;;;;;;7.00;36.93;102014.47;5051903;28;20606;-75
2024/01/21 03:05:15;;;;;;;4.43;2.00;;;;;;;7.11;36.04;102023.38;5053219;28;20032;-75
2024/01/21 03:07:40;;;;;;;7.23;2.47;;;;;;;6.90;37.04;102014.25;5050881;28;20021;-76
2024/01/21 03:10:06;;;;;;;3.50;1.90;;;;;;;7.47;36.43;102006.84;5051818;28;20043;-78
2024/01/21 03:12:31;;;;;;;4.77;2.17;;;;;;;6.72;37.52;102001.69;5051340;28;20025;-75
2024/01/21 03:14:57;;;;;;;8.27;2.20;;;;;;;6.49;37.97;102006.28;5052373;28;20090;-75
2024/01/21 03:17:22;;;;;;;4.40;2.33;;;;;;;6.73;37.62;101999.94;5051657;28;20029;-75
2024/01/21 03:19:47;;;;;;;7.60;2.17;;;;;;;6.38;37.91;102003.41;5051023;28;20530;-75
2024/01/21 03:22:13;;;;;;;6.20;3.00;;;;;;;7.22;36.76;102006.31;5050990;28;20121;-75
2024/01/21 03:24:38;;;;;;;9.20;2.67;;;;;;;7.31;36.97;102000.44;5051286;28;20432;-76
2024/01/21 03:27:04;;;;;;;5.50;1.77;;;;;;;7.51;36.79;101997.38;5051355;28;20024;-75
2024/01/21 03:29:29;;;;;;;4.13;2.23;;;;;;;7.32;36.91;102001.31;5050384;28;20051;-75
2024/01/21 03:31:55;;;;;;;5.40;2.37;;;;;;;7.42;36.69;101992.88;5051330;28;20396;-75
2024/01/21 03:34:20;;;;;;;7.50;2.20;;;;;;;7.22;36.74;101985.50;5052777;28;20025;-75
2024/01/21 03:36:45;;;;;;;4.70;2.93;;;;;;;6.94;37.56;101981.41;5046619;28;20468;-76
2024/01/21 03:39:11;;;;;;;6.20;2.50;;;;;;;7.22;37.29;101975.09;5031462;28;20030;-75
2024/01/21 03:41:36;;;;;;;5.17;2.47;;;;;;;6.99;37.87;101968.50;5050970;28;20048;-75
2024/01/21 03:44:02;;;;;;;6.80;3.03;;;;;;;6.89;38.00;101954.44;5052006;28;20021;-75
2024/01/21 03:46:27;;;;;;;4.37;2.53;;;;;;;7.27;37.32;101947.47;5051075;28;20017;-76
2024/01/21 03:48:52;;;;;;;6.33;2.30;;;;;;;6.99;37.68;101939.91;5051969;28;20076;-75
2024/01/21 03:51:18;;;;;;;7.83;2.60;;;;;;;7.57;37.15;101948.97;5051696;28;20039;-74
2024/01/21 03:53:44;;;;;;;4.50;2.30;;;;;;;7.29;37.64;101945.78;5050600;28;20392;-75
2024/01/21 03:56:17;;;;;;;5.73;2.27;;;;;;;7.61;37.47;101953.38;5052362;28;20044;-75
2024/01/21 03:58:42;;;;;;;4.07;2.27;;;;;;;7.84;36.80;101945.13;5051258;28;20481;-76
2024/01/21 04:01:08;;;;;;;5.90;2.30;;;;;;;7.07;38.14;101938.34;5052060;28;20025;-75
2024/01/21 04:03:33;;;;;;;5.00;2.10;;;;;;;6.95;38.12;101924.25;5050928;28;20391;-75
2024/01/21 04:05:58;;;;;;;5.47;2.73;;;;;;;7.30;36.94;101897.25;5049970;28;20084;-76
2024/01/21 04:08:24;;;;;;;7.00;2.93;;;;;;;7.47;37.23;101894.97;5050827;28;20021;-75
2024/01/21 04:10:50;;;;;;;10.30;3.27;;;;;;;6.91;38.29;101906.84;5049548;28;20078;-76
2024/01/21 04:13:17;;;;;;;3.80;2.00;;;;;;;7.41;37.66;101907.88;5050753;28;20025;-76
2024/01/21 04:15:42;;;;;;;6.50;2.57;;;;;;;7.37;37.54;101901.72;5051442;28;20017;-76
2024/01/21 04:18:07;;;;;;;6.27;2.33;;;;;;;7.77;36.98;101886.00;5051513;28;20047;-76
2024/01/21 04:20:33;;;;;;;8.87;2.83;;;;;;;7.44;37.62;101918.34;5051398;28;20052;-76
2024/01/21 04:22:58;;;;;;;7.23;2.73;;;;;;;6.75;38.80;101935.91;5050604;28;20032;-76
2024/01/21 04:25:23;;;;;;;5.67;2.17;;;;;;;7.10;37.65;101907.22;5049827;28;20029;-76
2024/01/21 04:27:49;;;;;;;5.90;2.63;;;;;;;7.17;38.17;101898.72;5050129;28;20090;-76
2024/01/21 04:30:14;;;;;;;5.43;2.17;;;;;;;6.93;38.51;101894.72;5051530;28;20090;-76
2024/01/21 04:32:40;;;;;;;6.97;2.30;;;;;;;6.46;39.40;101902.31;5049164;28;20036;-76
2024/01/21 04:35:05;;;;;;;4.97;1.97;;;;;;;7.06;38.09;101892.41;5051819;28;20031;-75
2024/01/21 04:37:31;;;;;;;6.13;2.33;;;;;;;7.32;37.61;101892.06;5049762;28;20035;-75
2024/01/21 04:39:56;;;;;;;6.83;2.97;;;;;;;7.58;37.28;101893.47;5049647;28;20021;-75
2024/01/21 04:42:22;;;;;;;7.13;3.07;;;;;;;7.76;37.54;101886.84;5051686;28;20449;-76
2024/01/21 04:44:47;;;;;;;3.90;2.50;;;;;;;6.92;38.63;101898.19;5050105;28;20029;-76
2024/01/21 04:47:12;;;;;;;7.90;3.13;;;;;;;7.58;37.28;101883.06;5049213;28;20480;-76
2024/01/21 04:49:38;;;;;;;7.20;3.03;;;;;;;7.45;37.70;101905.34;5050058;28;20040;-76
2024/01/21 04:52:03;;;;;;;6.37;3.27;;;;;;;7.57;37.47;101902.13;5050081;28;20396;-76
2024/01/21 04:54:29;;;;;;;5.43;2.70;;;;;;;7.20;37.80;101888.38;5049250;28;20033;-76
2024/01/21 04:56:54;;;;;;;6.27;2.90;;;;;;;7.43;37.45;101895.75;5050179;28;20090;-76
2024/01/21 04:59:20;;;;;;;4.73;2.37;;;;;;;7.08;37.77;101877.72;5050170;28;20053;-76
2024/01/21 05:01:49;;;;;;;6.63;2.60;;;;;;;7.47;37.78;101869.84;5048982;28;20086;-76
2024/01/21 05:04:15;;;;;;;8.47;3.30;;;;;;;6.71;38.85;101876.91;5051391;28;20040;-76
2024/01/21 05:06:40;;;;;;;7.30;3.60;;;;;;;7.08;38.31;101882.91;5051141;28;20021;-76
2024/01/21 05:09:05;;;;;;;6.40;3.20;;;;;;;7.56;37.59;101866.53;5049257;28;20388;-76
2024/01/21 05:11:31;;;;;;;7.37;2.37;;;;;;;6.79;38.86;101833.78;5049708;28;20039;-75
2024/01/21 05:13:56;;;;;;;3.87;2.53;;;;;;;6.93;38.35;101832.34;5048997;28;20464;-76
2024/01/21 05:16:21;;;;;;;4.97;2.90;;;;;;;7.23;37.97;101789.63;5050565;28;20111;-76
2024/01/21 05:18:47;;;;;;;5.10;2.67;;;;;;;7.21;38.65;101791.31;5053588;28;20025;-76
2024/01/21 05:21:19;;;;;;;3.10;2.00;;;;;;;7.51;38.27;101821.34;5054429;28;20098;-76
2024/01/21 05:23:44;;;;;;;8.88;3.08;;;;;;;8.05;37.25;101792.75;5053513;28;20027;-75
2024/01/21 05:26:10;;;;;;;4.53;2.27;;;;;;;7.48;38.25;101821.28;5054339;28;20025;-76
2024/01/21 05:28:35;;;;;;;7.20;2.77;;;;;;;7.96;37.33;101794.34;5052838;28;20036;-76
2024/01/21 05:31:01;;;;;;;6.30;2.27;;;;;;;7.76;37.79;101807.06;5053826;28;20028;-76
2024/01/21 05:33:26;;;;;;;3.77;2.20;;;;;;;7.58;37.42;101775.50;5055202;28;20036;-76
2024/01/21 05:35:51;;;;;;;5.07;2.67;;;;;;;7.59;37.71;101792.88;5052849;28;20485;-76
2024/01/21 05:38:17;;;;;;;8.77;2.90;;;;;;;7.41;38.47;101824.63;5054821;28;20484;-76
2024/01/21 05:40:42;;;;;;;5.67;2.90;;;;;;;7.67;37.80;101806.88;5053551;28;20029;-76
2024/01/21 05:43:08;;;;;;;5.67;3.53;;;;;;;7.20;38.53;101809.47;5053167;28;20492;-77
2024/01/21 05:45:33;;;;;;;6.57;2.63;;;;;;;7.48;38.28;101842.09;5053290;28;20024;-76
2024/01/21 05:47:58;;;;;;;6.80;2.77;;;;;;;7.59;37.90;101842.31;5050100;28;20504;-76
2024/01/21 05:50:24;;;;;;;7.60;2.87;;;;;;;7.93;37.27;101842.91;5049570;28;20120;-76
2024/01/21 05:52:49;;;;;;;5.77;2.27;;;;;;;7.70;37.58;101806.06;5047341;28;20473;-76
2024/01/21 05:55:14;;;;;;;10.50;3.63;;;;;;;7.21;38.36;101793.94;5054860;28;20110;-76
2024/01/21 05:57:40;;;;;;;7.27;3.00;;;;;;;7.79;38.01;101821.84;5052588;28;20104;-76
2024/01/21 06:00:06;;;;;;;5.83;2.53;;;;;;;7.13;38.33;101808.50;5053612;28;20034;-76
2024/01/21 06:02:32;;;;;;;6.70;3.30;;;;;;;8.01;37.24;101830.91;5052893;28;20033;-76
2024/01/21 06:04:57;;;;;;;6.07;2.80;;;;;;;7.99;37.12;101827.38;5053014;28;20032;-76
2024/01/21 06:07:22;;;;;;;8.20;3.60;;;;;;;8.26;36.75;101821.72;5053535;28;20476;-76
2024/01/21 06:09:48;;;;;;;7.73;2.93;;;;;;;7.85;37.47;101832.34;5052821;28;20033;-76
2024/01/21 06:12:13;;;;;;;7.13;2.60;;;;;;;8.21;37.08;101839.00;5052679;28;20023;-76
2024/01/21 06:14:39;;;;;;;10.43;3.23;;;;;;;7.77;37.80;101839.16;5053071;28;20083;-76
2024/01/21 06:17:04;;;;;;;6.27;3.60;;;;;;;7.70;37.71;101832.09;5053179;28;20064;-77
2024/01/21 06:19:30;;;;;;;7.30;2.57;;;;;;;7.80;38.15;101842.69;5053474;28;20037;-76
2024/01/21 06:21:55;;;;;;;6.93;2.70;;;;;;;7.61;37.77;101825.88;5054336;28;20392;-76
2024/01/21 06:24:20;;;;;;;4.20;2.57;;;;;;;8.01;37.76;101835.22;5052441;28;20108;-77
2024/01/21 06:26:46;;;;;;;6.03;3.50;;;;;;;8.22;37.17;101845.97;5052451;28;20458;-76
2024/01/21 06:29:12;;;;;;;5.03;2.57;;;;;;;8.61;36.89;101855.31;5051615;28;20031;-76
2024/01/21 06:31:38;;;;;;;6.87;3.33;;;;;;;7.57;37.67;101836.19;5051658;28;20033;-77
2024/01/21 06:34:04;;;;;;;9.00;3.20;;;;;;;7.26;38.57;101814.81;5052813;28;20029;-76
2024/01/21 06:36:29;;;;;;;7.17;3.33;;;;;;;7.87;37.32;101798.53;5052417;28;20119;-76
2024/01/21 06:38:55;;;;;;;5.60;3.17;;;;;;;7.78;38.08;101783.66;5052157;28;20033;-76
2024/01/21 06:41:20;;;;;;;3.83;2.90;;;;;;;7.62;38.13;101767.78;5052865;28;20028;-76
2024/01/21 06:43:46;;;;;;;6.00;3.00;;;;;;;7.82;38.11;101744.66;5052063;28;20061;-76
2024/01/21 06:46:12;;;;;;;5.00;2.40;;;;;;;7.41;38.77;101731.84;5053233;28;20021;-75
2024/01/21 06:48:37;;;;;;;4.03;2.63;;;;;;;7.02;39.45;101756.28;5051971;28;20507;-75
2024/01/21 06:51:10;;;;;;;7.10;3.33;;;;;;;7.70;38.15;101748.81;5053829;28;20025;-76
2024/01/21 06:53:36;;;;;;;11.23;2.90;;;;;;;7.47;38.90;101741.47;5051452;28;20028;-75
2024/01/21 06:56:06;;;;;;;7.53;2.67;;;;;;;6.95;39.59;101747.50;5052692;28;20074;-75
2024/01/21 06:58:35;;;;;;;5.20;2.97;;;;;;;7.48;38.60;101732.84;5051830;28;20029;-74
2024/01/21 07:01:00;;;;;;;4.83;2.07;;;;;;;6.81;38.98;101748.91;5051884;28;20031;-75
2024/01/21 07:03:26;;;;;;;7.37;3.60;;;;;;;6.91;38.93;101766.47;5052277;28;20400;-75
2024/01/21 07:05:51;;;;;;;6.10;3.17;;;;;;;7.08;39.17;101758.13;5053434;28;20020;-76
2024/01/21 07:08:18;;;;;;;6.90;2.97;;;;;;;7.26;38.55;101747.19;5051738;28;20599;-75
2024/01/21 07:10:43;;;;;;;6.67;3.20;;;;;;;7.24;38.42;101765.38;5052075;28;20024;-76
2024/01/21 07:13:10;;;;;;;5.73;3.03;;;;;;;8.08;38.09;101764.19;5052305;28;20033;-75
2024/01/21 07:15:36;;;;;;;5.63;3.00;;;;;;;8.08;37.50;101775.44;5051166;28;20035;-75
2024/01/21 07:18:01;;;;;;;5.63;2.97;;;;;;;7.27;38.51;101798.38;5051971;28;20029;-75
2024/01/21 07:20:27;;;;;;;8.00;3.60;;;;;;;7.48;38.65;101790.06;5051854;28;20555;-75
2024/01/21 07:22:52;;;;;;;5.17;2.93;;;;;;;7.94;37.60;101796.06;5052589;28;20020;-74
2024/01/21 07:25:18;;;;;;;9.97;4.00;;;;;;;8.33;37.54;101805.34;5058280;28;20059;-77
2024/01/21 07:27:43;;;;;;;5.53;3.00;;;;;;;7.10;38.71;101808.41;5050994;28;20024;-77
2024/01/21 07:30:12;;;;;;;7.53;3.37;;;;;;;7.30;39.69;101806.22;5052242;28;20370;-77
2024/01/21 07:32:41;;;;;;;6.50;3.03;;;;;;;7.63;38.89;101798.13;5051354;28;20028;-77
2024/01/21 07:35:08;;;;;;;4.97;2.83;;;;;;;7.53;39.07;101804.03;5054740;28;20115;-77
2024/01/21 07:37:35;;;;;;;7.07;3.17;;;;;;;7.65;39.24;101800.75;5052794;28;20064;-77
2024/01/21 07:40:01;;;;;;;5.67;3.30;;;;;;;7.42;39.64;101818.59;5051835;28;20024;-77
2024/01/21 07:42:27;;;;;;;6.77;2.70;;;;;;;8.14;38.65;101826.75;5052333;28;20025;-76
2024/01/21 07:44:54;;;;;;;6.73;3.83;;;;;;;7.64;39.22;101838.06;5052215;28;20029;-77
2024/01/21 07:47:20;;;;;;;8.07;3.83;;;;;;;7.25;40.34;101839.94;5051748;28;20068;-78
2024/01/21 07:49:46;;;;;;;5.20;2.87;;;;;;;8.55;38.84;101825.66;5051295;28;20052;-78
2024/01/21 07:52:12;;;;;;;7.03;3.57;;;;;;;7.75;39.44;101835.66;5053226;28;20028;-78
2024/01/21 07:54:37;;;;;;;8.30;2.73;;;;;;;7.92;40.09;101834.19;5051342;28;20025;-78
2024/01/21 07:57:03;;;;;;;6.03;3.57;;;;;;;8.87;38.47;101823.47;5051005;28;20142;-77
2024/01/21 07:59:31;;;;;;;7.93;3.43;;;;;;;8.01;40.18;101832.59;5051626;28;20051;-78
2024/01/21 08:01:56;;;;;;;7.20;3.57;;;;;;;7.66;40.76;101802.53;5051411;28;20021;-77
2024/01/21 08:04:22;;;;;;;7.97;3.83;;;;;;;7.68;41.48;101818.16;5047417;28;20052;-78
2024/01/21 08:06:47;;;;;;;10.57;3.57;;;;;;;7.84;40.86;101827.13;5031183;28;20032;-77
2024/01/21 08:09:13;;;;;;;3.63;2.63;;;;;;;8.01;40.80;101845.63;5049390;28;20059;-78
2024/01/21 08:11:38;;;;;;;5.53;3.23;;;;;;;7.68;41.46;101849.38;5050442;28;20448;-79
2024/01/21 08:14:04;;;;;;;7.60;3.90;;;;;;;8.57;39.88;101845.69;5051168;28;20047;-77
2024/01/21 08:16:29;;;;;;;9.80;3.90;;;;;;;8.48;40.00;101846.41;5052245;28;20560;-78
2024/01/21 08:18:55;;;;;;;5.67;3.87;;;;;;;7.77;41.56;101857.38;5050767;28;20100;-78
2024/01/21 08:21:20;;;;;;;11.00;3.60;;;;;;;8.33;40.77;101869.59;5051471;28;20025;-78
2024/01/21 08:23:45;;;;;;;6.17;3.13;;;;;;;8.02;41.48;101876.88;5050175;28;20354;-77
2024/01/21 08:26:11;;;;;;;9.83;4.30;;;;;;;8.37;41.17;101879.22;5051176;28;20031;-78
2024/01/21 08:28:39;;;;;;;6.50;2.93;;;;;;;8.24;42.05;101870.34;5050811;28;20024;-78
2024/01/21 08:31:04;;;;;;;9.50;3.67;;;;;;;9.03;40.54;101860.22;5051588;28;20036;-77
2024/01/21 08:33:30;;;;;;;8.73;4.10;;;;;;;8.86;40.55;101858.25;5050719;28;20024;-77
2024/01/21 08:35:55;;;;;;;5.33;3.07;;;;;;;8.33;41.49;101851.38;5051226;28;20483;-78
2024/01/21 08:38:21;;;;;;;8.07;3.43;;;;;;;8.20;42.20;101860.72;5050617;28;20032;-78
2024/01/21 08:40:46;;;;;;;10.43;3.57;;;;;;;8.02;42.44;101876.03;5050448;28;20075;-78
2024/01/21 08:43:11;;;;;;;9.03;3.40;;;;;;;8.08;42.79;101869.19;5051011;28;20032;-78
2024/01/21 08:45:37;;;;;;;8.23;3.23;;;;;;;8.65;41.92;101871.84;5049843;28;20552;-78
2024/01/21 08:48:03;;;;;;;6.93;3.70;;;;;;;8.80;42.09;101868.59;5050598;28;20063;-78
2024/01/21 08:50:29;;;;;;;11.20;3.50;;;;;;;8.64;42.42;101873.59;5050524;28;20024;-78
2024/01/21 08:52:54;;;;;;;7.23;3.37;;;;;;;9.44;41.63;101875.47;5050001;28;20032;-78
2024/01/21 08:55:20;;;;;;;7.83;3.60;;;;;;;8.33;43.22;101878.28;5052036;28;20028;-78
2024/01/21 08:57:45;;;;;;;5.47;2.63;;;;;;;9.30;41.49;101865.75;5050407;28;20021;-78
2024/01/21 09:00:11;;;;;;;8.57;3.80;;;;;;;9.62;41.19;101862.63;5050094;28;20021;-78
2024/01/21 09:02:37;;;;;;;5.90;3.30;;;;;;;8.51;43.81;101869.03;5050107;28;20017;-78
2024/01/21 09:05:02;;;;;;;8.90;4.13;;;;;;;8.94;42.83;101872.28;5051774;28;20039;-78
2024/01/21 09:07:30;;;;;;;5.53;3.60;;;;;;;9.44;42.31;101896.38;5050089;28;20024;-78
2024/01/21 09:09:56;;;;;;;5.13;3.20;;;;;;;8.72;43.87;101891.94;5050815;28;20059;-78
2024/01/21 09:12:22;;;;;;;7.60;3.50;;;;;;;8.88;43.54;101892.16;5050781;28;20521;-78
2024/01/21 09:14:47;;;;;;;7.83;3.23;;;;;;;8.24;45.13;101893.78;5050905;28;20286;-78
2024/01/21 09:17:13;;;;;;;6.73;3.37;;;;;;;8.54;44.46;101892.53;5050604;28;20021;-78
2024/01/21 09:19:38;;;;;;;7.13;3.67;;;;;;;8.66;44.85;101886.63;5050351;28;20024;-79
2024/01/21 09:22:04;;;;;;;6.27;3.23;;;;;;;9.11;44.74;101890.72;5050011;28;20499;-78
2024/01/21 09:24:29;;;;;;;5.80;3.07;;;;;;;8.94;44.74;101903.56;5050218;28;20032;-77
2024/01/21 09:26:55;;;;;;;6.43;3.60;;;;;;;9.61;43.32;101881.75;5050701;28;20021;-78
2024/01/21 09:29:20;;;;;;;6.30;3.20;;;;;;;9.16;45.17;101882.97;5049712;28;20021;-78
2024/01/21 09:32:04;;;;;;;7.83;3.70;;;;;;;9.87;44.90;101878.53;5050198;28;20473;-78
2024/01/21 09:34:30;;;;;;;9.10;3.80;;;;;;;9.08;46.15;101880.28;5049564;28;20115;-78
2024/01/21 09:36:55;;;;;;;10.70;3.20;;;;;;;9.31;45.46;101866.63;5050467;28;20120;-78
2024/01/21 09:39:20;;;;;;;7.30;3.60;;;;;;;9.38;45.98;101878.88;5050488;28;20063;-78
2024/01/21 09:41:50;;;;;;;9.30;4.13;;;;;;;9.09;47.26;101870.69;5049599;28;20033;-78
2024/01/21 09:44:18;;;;;;;8.83;3.70;;;;;;;9.88;46.06;101869.84;5050297;28;20029;-78
2024/01/21 09:46:50;;;;;;;9.27;3.40;;;;;;;9.45;46.52;101858.94;5049646;28;20044;-77
2024/01/21 09:49:17;;;;;;;8.67;3.27;;;;;;;9.65;46.57;101862.63;5049555;28;20551;-78
2024/01/21 09:51:42;;;;;;;11.03;3.60;;;;;;;9.80;46.36;101845.38;5050076;28;20416;-77
2024/01/21 09:54:08;;;;;;;6.53;3.00;;;;;;;9.42;47.28;101843.25;5050243;28;20025;-78
2024/01/21 09:56:34;;;;;;;12.50;4.00;;;;;;;10.08;46.80;101856.94;5045642;28;20051;-77
2024/01/21 09:59:02;;;;;;;9.20;4.20;;;;;;;9.78;47.42;101857.53;5031720;28;20541;-77
2024/01/21 10:01:27;;;;;;;6.77;3.20;;;;;;;9.62;48.07;101862.63;5032741;28;20048;-77
2024/01/21 10:03:53;;;;;;;6.87;3.93;;;;;;;9.77;48.01;101855.81;5052310;28;20021;-77
2024/01/21 10:06:18;;;;;;;8.77;4.07;;;;;;;9.90;47.80;101873.31;5053708;28;20033;-77
2024/01/21 10:08:44;;;;;;;8.47;3.57;;;;;;;9.78;47.94;101873.22;5053417;28;20100;-77
2024/01/21 10:11:09;;;;;;;7.50;3.07;;;;;;;10.39;47.59;101861.59;5053048;28;20388;-77
2024/01/21 10:13:38;;;;;;;7.20;3.37;;;;;;;10.05;47.63;101863.91;5049865;28;20025;-77
2024/01/21 10:16:04;;;;;;;7.03;3.30;;;;;;;9.23;50.24;101848.28;5034867;28;20017;-77
2024/01/21 10:18:30;;;;;;;7.60;4.20;;;;;;;9.33;50.49;101852.72;5049692;28;20025;-74
2024/01/21 10:21:01;;;;;;;7.87;3.83;;;;;;;10.63;47.52;101851.28;5053752;28;20020;-78
2024/01/21 10:23:27;;;;;;;8.63;4.13;;;;;;;9.71;49.30;101847.91;5052550;28;20509;-77
2024/01/21 10:25:52;;;;;;;10.20;3.97;;;;;;;9.92;49.50;101845.50;5053987;28;20029;-77
2024/01/21 10:28:18;;;;;;;8.53;3.37;;;;;;;9.81;50.00;101832.34;5053285;28;20410;-77
2024/01/21 10:30:44;;;;;;;10.87;4.93;;;;;;;9.78;50.11;101827.09;5052040;28;20021;-77
2024/01/21 10:33:10;;;;;;;10.33;4.30;;;;;;;9.71;50.47;101834.84;5054338;28;20017;-77
2024/01/21 10:35:36;;;;;;;7.30;3.57;;;;;;;10.47;48.23;101829.41;5052784;28;20104;-77
2024/01/21 10:38:05;;;;;;;19.20;6.00;;;;;;;9.48;51.26;101823.31;5052147;28;20116;-77
2024/01/21 10:40:31;;;;;;;11.97;5.87;;;;;;;9.94;49.96;101828.09;5052768;28;20027;-78
2024/01/21 10:42:59;;;;;;;8.77;4.33;;;;;;;10.13;48.77;101820.41;5053032;28;20384;-77
2024/01/21 10:45:31;;;;;;;8.37;4.13;;;;;;;9.70;51.24;101814.81;5052260;28;20025;-77
2024/01/21 10:47:57;;;;;;;9.23;4.00;;;;;;;9.26;51.72;101822.22;5052562;28;20053;-75
2024/01/21 10:50:24;;;;;;;6.80;3.63;;;;;;;9.58;51.21;101819.06;5052566;28;20465;-75
2024/01/21 10:52:50;;;;;;;6.23;3.80;;;;;;;10.25;49.70;101828.34;5051754;28;20051;-75
2024/01/21 10:55:16;;;;;;;7.73;4.07;;;;;;;10.16;49.52;101828.28;5052997;28;20137;-75
2024/01/21 10:57:47;;;;;;;12.13;4.50;;;;;;;9.60;50.64;101821.69;5052083;28;20039;-75
2024/01/21 11:00:13;;;;;;;7.17;4.20;;;;;;;9.96;50.38;101834.22;5052056;28;20478;-75
2024/01/21 11:02:38;;;;;;;8.37;3.43;;;;;;;9.62;50.31;101852.19;5052039;28;20075;-74
2024/01/21 11:05:04;;;;;;;9.63;4.60;;;;;;;9.17;50.87;101827.31;5052206;28;20059;-75
2024/01/21 11:07:30;;;;;;;4.73;3.37;;;;;;;9.61;50.89;101850.41;5051079;28;20515;-74
2024/01/21 11:09:57;;;;;;;8.27;3.80;;;;;;;10.06;49.06;101843.00;5053734;28;20112;-75
2024/01/21 11:12:22;;;;;;;8.13;3.70;;;;;;;9.91;49.37;101843.75;5053559;28;20036;-75
2024/01/21 11:14:48;;;;;;;8.13;4.03;;;;;;;10.37;48.77;101845.00;5050569;28;20290;-75
2024/01/21 11:17:17;;;;;;;5.57;3.17;;;;;;;9.92;49.12;101834.16;5052353;28;20035;-76
2024/01/21 11:19:49;;;;;;;10.47;4.43;;;;;;;10.53;49.09;101839.88;5052354;28;20029;-75
2024/01/21 11:22:15;;;;;;;8.40;3.73;;;;;;;10.39;48.86;101846.78;5052236;28;20468;-76
2024/01/21 11:24:41;;;;;;;7.70;3.60;;;;;;;10.01;49.90;101848.19;5052896;28;20052;-77